• Join FlightAware (Why Join?)
  • Login
  • US Flag 
10:21PM EDT


 

Airport Tracker/Info


-or-


 

Live Flight TrackerFlight Track Log ✈ UAL5840 ✈ 12-Apr-2013 ✈ KORD - KLEX

Flight Track Log - Related Links

Times and Time Zones

All times are in EDT time to prevent confusion due to time zone crossing. See the UAL5840 flight status page for this flight to view local times or setup timezone preferences in your user account.

Time Position Orientation Groundspeed Altitude Reporting Facility
EDT Latitude Longitude Course Direction KTS MPH feet Rate Location/Type
06:07PM 41.9333 -87.9000 169° South 162 186 2,400  Level Chicago TRACON
06:08PM 41.8833 -87.9000 180° South 207 238 4,100 1,680 Climbing Chicago TRACON
06:09PM 41.8131 -87.8817 169° South 229 264 6,100 1,980 Climbing Chicago Center
06:10PM 41.6347 -87.5973 156° South  Level Estimated
06:10PM 41.7456 -87.8403 155° Southeast 267 307 8,500  Level Chicago Center
06:11PM 41.5307 -87.5894 177° South  Level FlightAware Approximate
06:11PM 41.6775 -87.7822 147° Southeast 287 330 10,500  Level Chicago Center
06:12PM 41.4445 -87.5113 169° South  Level Estimated
06:12PM 41.5914 -87.7103 148° Southeast 301 346 13,000  Level Chicago Center
06:13PM 41.5181 -87.6483 148° Southeast 308 354 14,600 1,020 Climbing Chicago Center
06:14PM 41.4358 -87.5819 149° Southeast 338 389 15,200 960 Climbing Chicago Center
06:15PM 41.3356 -87.5572 170° South 366 421 16,600 1,680 Climbing Chicago Center
06:16PM 41.2383 -87.5417 173° South 354 407 18,700 1,920 Climbing Chicago Center
06:17PM 41.1436 -87.5200 170° South 348 400 20,700 1,980 Climbing Chicago Center
06:18PM 41.0325 -87.4883 168° South 342 394 22,900 1,740 Climbing Chicago Center
06:19PM 40.9378 -87.4636 169° South 344 396 24,300 1,200 Climbing Chicago Center
06:20PM 40.8411 -87.4378 169° South 353 406 25,400 960 Climbing Chicago Center
06:21PM 40.7394 -87.4097 168° South 369 425 26,300 720 Climbing Chicago Center
06:22PM 40.6353 -87.3839 169° South 379 436 27,000 300 Climbing Chicago Center
06:23PM 40.5247 -87.3533 168° South 400 460 27,000  Level Chicago Center
06:24PM 40.3881 -87.3053 165° South 423 487 27,000  Level Chicago Center
06:25PM 40.2736 -87.2506 160° South 435 501 27,000  Level Chicago Center
06:26PM 40.1594 -87.1981 161° South 436 502 27,000  Level Chicago Center
06:27PM 40.0678 -87.1553 160° South 437 503 27,000  Level Indianapolis Center
06:28PM 39.9542 -87.0925 157° South 442 509 27,000  Level Indianapolis Center
06:29PM 39.8492 -87.0003 146° Southeast 449 517 27,000  Level Indianapolis Center
06:30PM 39.7194 -86.8942 148° Southeast 456 525 27,000  Level Indianapolis Center
06:31PM 39.6125 -86.8039 147° Southeast 455 524 27,000  Level Indianapolis Center
06:32PM 39.5067 -86.7142 147° Southeast 452 520 27,000  Level Indianapolis Center
06:33PM 39.3989 -86.6250 147° Southeast 455 524 27,000 -780 Level Indianapolis Center
06:34PM 39.2900 -86.5381 148° Southeast 457 526 25,500 -1,680 Descending Indianapolis Center
06:36PM 39.1797 -86.4467 147° Southeast 463 533 23,600 -1,260 Descending Indianapolis Center
06:37PM 39.0692 -86.3558 147° Southeast 466 536 23,000 -300 Descending Indianapolis Center
06:38PM 38.9617 -86.2667 147° Southeast 459 528 23,000  Level Indianapolis Center
06:39PM 38.8544 -86.1806 148° Southeast 453 521 23,000 -180 Level Indianapolis Center
06:40PM 38.7250 -86.0753 148° Southeast 454 522 22,700 -1,140 Descending Indianapolis Center
06:41PM 38.6189 -85.9894 148° Southeast 448 516 20,700 -1,980 Descending Indianapolis Center
06:42PM 38.5186 -85.8933 143° Southeast 457 526 18,700 -2,040 Descending Indianapolis Center
06:43PM 38.4617 -85.7475 116° Southeast 463 533 16,600 -2,040 Descending Indianapolis Center
06:44PM 38.4078 -85.6047 116° Southeast 449 517 14,600 -1,980 Descending Indianapolis Center
06:45PM 38.3619 -85.4744 114° Southeast 406 467 12,600 -1,740 Descending Indianapolis Center
06:46PM 38.3128 -85.3403 115° Southeast 412 474 11,100 -780 Descending Indianapolis Center
06:47PM 38.2608 -85.1867 113° Southeast 402 463 11,000 -60 Descending Indianapolis Center
06:48PM 38.2344 -85.0464 103° East 403 464 11,000 -300 Level Indianapolis Center
06:49PM 38.2122 -84.9183 102° East 379 436 10,400 -1,260 Descending Indianapolis Center
06:50PM 38.1856 -84.8094 107° East 332 382 8,500 -1,680 Descending Indianapolis Center
06:51PM 38.1664 -84.7031 103° East 317 365 7,000 -1,560 Descending Indianapolis Center
06:52PM 38.1464 -84.6069 105° East 299 344 5,400 -1,620 Descending Indianapolis Center